Time;durP1;ratioP1;P1;durP2;ratioP2;P2;SDS_P1;SDS_P2;PMS_P1;PMS_P2;Temp;Humidity;BMP_temperature;BMP_pressure;BME280_temperature;BME280_humidity;BME280_pressure;Samples;Min_cycle;Max_cycle;Signal;HPM_P1;HPM_P2
2023/11/18 00:00:37;;;;;;;;;;;179.80;2252.80;;;;;;4978043;28;19906;-74
2023/11/18 00:03:03;;;;;;;;;;;179.70;2252.80;;;;;;4978531;28;20017;-74
2023/11/18 00:05:28;;;;;;;;;;;179.60;2252.80;;;;;;4966977;28;19988;-73
2023/11/18 00:07:55;;;;;;;;;;;179.70;2252.80;;;;;;4992570;28;19910;-75
2023/11/18 00:10:20;;;;;;;;;;;180.10;2252.80;;;;;;4990188;28;19906;-74
2023/11/18 00:12:46;;;;;;;;;;;179.60;2252.80;;;;;;4987554;28;19913;-74
2023/11/18 00:15:12;;;;;;;;;;;179.50;2252.80;;;;;;4991079;28;19918;-74
2023/11/18 00:17:38;;;;;;;;;;;179.60;2252.80;;;;;;4971669;28;20407;-74
2023/11/18 00:20:09;;;;;;;;;;;179.50;2252.80;;;;;;4976322;28;19916;-74
2023/11/18 00:22:35;;;;;;;;;;;179.60;2252.80;;;;;;4990546;28;20449;-75
2023/11/18 00:25:01;;;;;;;;;;;179.50;2252.80;;;;;;4975771;28;19912;-74
2023/11/18 00:27:30;;;;;;;;;;;179.40;2252.80;;;;;;4992835;28;19906;-74
2023/11/18 00:29:55;;;;;;;;;;;179.30;2252.80;;;;;;4986736;28;19906;-74
2023/11/18 00:32:21;;;;;;;;;;;179.30;2252.80;;;;;;4976851;28;19989;-74
2023/11/18 00:34:47;;;;;;;;;;;179.50;2252.80;;;;;;4989029;28;19959;-74
2023/11/18 00:37:12;;;;;;;;;;;179.20;2252.80;;;;;;4988634;28;19906;-74
2023/11/18 00:39:38;;;;;;;;;;;154.50;2252.80;;;;;;4991254;28;19910;-74
2023/11/18 00:42:04;;;;;;;;;;;154.50;2252.80;;;;;;4992085;28;19913;-74
2023/11/18 00:44:29;;;;;;;;;;;179.20;2252.80;;;;;;4977254;28;20307;-74
2023/11/18 00:46:57;;;;;;;;;;;179.20;2252.80;;;;;;4978124;28;20261;-74
2023/11/18 00:49:23;;;;;;;;;;;179.30;2252.80;;;;;;4992982;28;19944;-74
2023/11/18 00:51:49;;;;;;;;;;;179.30;2252.80;;;;;;4988446;28;19949;-75
2023/11/18 00:54:14;;;;;;;;;;;179.30;2252.80;;;;;;4966569;28;19964;-75
2023/11/18 00:56:40;;;;;;;;;;;154.50;2252.80;;;;;;4995150;28;19910;-75
2023/11/18 00:59:06;;;;;;;;;;;154.40;2252.80;;;;;;4995771;28;19996;-75
2023/11/18 01:01:32;;;;;;;;;;;179.20;2252.80;;;;;;4993694;28;19935;-75
2023/11/18 01:03:59;;;;;;;;;;;154.50;2252.80;;;;;;4978680;28;19906;-75
2023/11/18 01:06:26;;;;;;;;;;;154.50;2252.80;;;;;;4976392;28;20316;-75
2023/11/18 01:08:51;;;;;;;;;;;179.20;2252.80;;;;;;4976427;28;19929;-75
2023/11/18 01:11:20;;;;;;;;;;;179.20;2252.80;;;;;;4990889;28;20364;-75
2023/11/18 01:13:46;;;;;;;;;;;154.50;2252.80;;;;;;4995463;28;19917;-75
2023/11/18 01:16:11;;;;;;;;;;;154.50;2252.80;;;;;;4995187;28;19913;-75
2023/11/18 01:18:37;;;;;;;;;;;154.50;2252.80;;;;;;4995616;28;19975;-75
2023/11/18 01:21:02;;;;;;;;;;;154.40;2252.80;;;;;;4995142;28;19924;-75
2023/11/18 01:23:28;;;;;;;;;;;154.30;2252.80;;;;;;4995008;28;19910;-75
2023/11/18 01:25:55;;;;;;;;;;;154.40;2252.80;;;;;;4995083;28;19910;-75
2023/11/18 01:28:21;;;;;;;;;;;154.30;2252.80;;;;;;4995395;28;19968;-75
2023/11/18 01:30:46;;;;;;;;;;;154.20;2252.80;;;;;;4995122;28;20376;-75
2023/11/18 01:33:14;;;;;;;;;;;154.20;2252.80;;;;;;4977736;28;19927;-75
2023/11/18 01:35:40;;;;;;;;;;;154.30;2252.80;;;;;;4977533;28;19938;-75
2023/11/18 01:38:05;;;;;;;;;;;154.30;2252.80;;;;;;4995235;28;20025;-75
2023/11/18 01:40:33;;;;;;;;;;;154.30;2252.80;;;;;;4977362;28;19913;-75
2023/11/18 01:42:58;;;;;;;;;;;154.30;2252.80;;;;;;4994870;28;19906;-75
2023/11/18 01:45:26;;;;;;;;;;;154.40;2252.80;;;;;;4994626;28;19910;-75
2023/11/18 01:47:52;;;;;;;;;;;154.50;2252.80;;;;;;4977376;28;19913;-75
2023/11/18 01:50:18;;;;;;;;;;;179.30;2252.80;;;;;;4977163;28;19942;-75
2023/11/18 01:52:45;;;;;;;;;;;179.30;2252.80;;;;;;4994907;28;19914;-75
2023/11/18 01:55:11;;;;;;;;;;;179.20;2252.80;;;;;;4976900;28;21050;-75
2023/11/18 01:57:36;;;;;;;;;;;179.20;2252.80;;;;;;4977285;28;19906;-75
2023/11/18 02:00:06;;;;;;;;;;;179.30;2252.80;;;;;;4994649;28;20004;-75
2023/11/18 02:02:32;;;;;;;;;;;179.20;2252.80;;;;;;4977181;28;19912;-75
2023/11/18 02:05:01;;;;;;;;;;;154.40;2252.80;;;;;;4977397;28;20338;-75
2023/11/18 02:07:35;;;;;;;;;;;154.50;2252.80;;;;;;4977166;28;19909;-73
2023/11/18 02:10:01;;;;;;;;;;;179.20;2252.80;;;;;;4994046;28;19928;-74
2023/11/18 02:12:34;;;;;;;;;;;179.30;2252.80;;;;;;4977288;28;20371;-74
2023/11/18 02:15:00;;;;;;;;;;;179.30;2252.80;;;;;;4994322;28;20426;-75
2023/11/18 02:17:27;;;;;;;;;;;179.40;2252.80;;;;;;4994280;28;19905;-74
2023/11/18 02:19:55;;;;;;;;;;;179.30;2252.80;;;;;;4977027;28;19917;-75
2023/11/18 02:22:21;;;;;;;;;;;179.20;2252.80;;;;;;4994302;28;19958;-74
2023/11/18 02:24:48;;;;;;;;;;;179.60;2252.80;;;;;;4976984;28;19912;-74
2023/11/18 02:27:14;;;;;;;;;;;179.20;2252.80;;;;;;4993978;28;19906;-74
2023/11/18 02:29:45;;;;;;;;;;;179.30;2252.80;;;;;;4976854;28;19967;-74
2023/11/18 02:32:30;;;;;;;;;;;179.20;2252.80;;;;;;4994204;28;19909;-74
2023/11/18 02:35:03;;;;;;;;;;;154.50;2252.80;;;;;;4994169;28;19914;-74
2023/11/18 02:37:32;;;;;;;;;;;179.20;2252.80;;;;;;4993940;28;19910;-75
2023/11/18 02:40:03;;;;;;;;;;;179.30;2252.80;;;;;;4976777;28;20000;-75
2023/11/18 02:42:29;;;;;;;;;;;179.40;2252.80;;;;;;4976204;28;19906;-75
2023/11/18 02:44:59;;;;;;;;;;;179.40;2252.80;;;;;;4994162;28;19916;-76
2023/11/18 02:47:25;;;;;;;;;;;179.40;2252.80;;;;;;4976289;28;20390;-75
2023/11/18 02:49:56;;;;;;;;;;;179.50;2252.80;;;;;;4976470;28;19992;-75
2023/11/18 02:52:22;;;;;;;;;;;179.50;2252.80;;;;;;4976725;28;19909;-75
2023/11/18 02:54:48;;;;;;;;;;;179.60;2252.80;;;;;;4976282;28;19920;-75
2023/11/18 02:57:13;;;;;;;;;;;179.40;2252.80;;;;;;5007991;28;20266;-75
2023/11/18 02:59:39;;;;;;;;;;;179.40;2252.80;;;;;;4980692;28;19960;-75
2023/11/18 03:02:06;;;;;;;;;;;179.50;2252.80;;;;;;4980600;28;19909;-75
2023/11/18 03:04:31;;;;;;;;;;;179.50;2252.80;;;;;;4997971;28;19949;-75
2023/11/18 03:06:57;;;;;;;;;;;179.50;2252.80;;;;;;4997767;28;19913;-75
2023/11/18 03:09:27;;;;;;;;;;;179.50;2252.80;;;;;;4997780;28;19953;-75
2023/11/18 03:11:54;;;;;;;;;;;179.40;2252.80;;;;;;4997951;28;19944;-75
2023/11/18 03:14:20;;;;;;;;;;;179.40;2252.80;;;;;;4997890;28;19921;-75
2023/11/18 03:16:46;;;;;;;;;;;179.50;2252.80;;;;;;4997974;28;19905;-75
2023/11/18 03:19:13;;;;;;;;;;;179.50;2252.80;;;;;;4997578;28;19914;-75
2023/11/18 03:21:39;;;;;;;;;;;179.60;2252.80;;;;;;4997469;28;19917;-76
2023/11/18 03:24:05;;;;;;;;;;;179.60;2252.80;;;;;;4997493;28;19920;-75
2023/11/18 03:26:32;;;;;;;;;;;179.60;2252.80;;;;;;4997553;28;19913;-75
2023/11/18 03:28:57;;;;;;;;;;;179.70;2252.80;;;;;;4980031;28;19906;-75
2023/11/18 03:31:23;;;;;;;;;;;179.70;2252.80;;;;;;4997608;28;19906;-75
2023/11/18 03:33:48;;;;;;;;;;;179.70;2252.80;;;;;;4997132;28;19916;-75
2023/11/18 03:36:17;;;;;;;;;;;179.50;2252.80;;;;;;4996229;28;19952;-75
2023/11/18 03:38:43;;;;;;;;;;;179.60;2252.80;;;;;;4997268;28;19906;-75
2023/11/18 03:41:08;;;;;;;;;;;179.70;2252.80;;;;;;4979834;28;19905;-75
2023/11/18 03:43:34;;;;;;;;;;;179.70;2252.80;;;;;;4997207;28;19996;-75
2023/11/18 03:45:59;;;;;;;;;;;179.60;2252.80;;;;;;4997212;28;19910;-75
2023/11/18 03:48:25;;;;;;;;;;;179.70;2252.80;;;;;;4979577;28;19989;-75
2023/11/18 03:50:50;;;;;;;;;;;179.70;2252.80;;;;;;4979596;28;20283;-75
2023/11/18 03:53:16;;;;;;;;;;;179.70;2252.80;;;;;;4997007;28;19910;-75
2023/11/18 03:55:42;;;;;;;;;;;179.70;2252.80;;;;;;4996836;28;19950;-75
2023/11/18 03:58:08;;;;;;;;;;;179.70;2252.80;;;;;;4996794;28;19937;-75
2023/11/18 04:00:34;;;;;;;;;;;179.60;2252.80;;;;;;4997026;28;19905;-75
2023/11/18 04:02:59;;;;;;;;;;;179.50;2252.80;;;;;;4996857;28;20025;-75
2023/11/18 04:05:25;;;;;;;;;;;179.50;2252.80;;;;;;4997002;28;19905;-75
2023/11/18 04:07:51;;;;;;;;;;;179.50;2252.80;;;;;;4996368;28;19905;-75
2023/11/18 04:10:18;;;;;;;;;;;179.40;2252.80;;;;;;4979724;28;20026;-75
2023/11/18 04:12:46;;;;;;;;;;;179.50;2252.80;;;;;;4978881;28;19906;-75
2023/11/18 04:15:12;;;;;;;;;;;179.50;2252.80;;;;;;4979100;28;19924;-75
2023/11/18 04:17:37;;;;;;;;;;;179.40;2252.80;;;;;;4978850;28;19906;-75
2023/11/18 04:20:08;;;;;;;;;;;179.40;2252.80;;;;;;4978956;28;19942;-75
2023/11/18 04:22:34;;;;;;;;;;;179.60;2252.80;;;;;;4979018;28;19925;-75
2023/11/18 04:24:59;;;;;;;;;;;179.40;2252.80;;;;;;4979118;28;19905;-75
2023/11/18 04:27:25;;;;;;;;;;;179.40;2252.80;;;;;;4994911;28;19906;-75
2023/11/18 04:29:50;;;;;;;;;;;179.50;2252.80;;;;;;4996468;28;19913;-75
2023/11/18 04:32:16;;;;;;;;;;;179.40;2252.80;;;;;;4996245;28;20377;-75
2023/11/18 04:34:42;;;;;;;;;;;179.30;2252.80;;;;;;4978826;28;20418;-75
2023/11/18 04:37:08;;;;;;;;;;;179.40;2252.80;;;;;;4978497;28;19906;-75
2023/11/18 04:39:33;;;;;;;;;;;179.30;2252.80;;;;;;4978788;28;20043;-75
2023/11/18 04:41:59;;;;;;;;;;;179.30;2252.80;;;;;;4995999;28;19941;-75
2023/11/18 04:44:24;;;;;;;;;;;179.30;2252.80;;;;;;4996050;28;19916;-75
2023/11/18 04:46:50;;;;;;;;;;;179.40;2252.80;;;;;;4996104;28;19906;-75
2023/11/18 04:49:16;;;;;;;;;;;179.40;2252.80;;;;;;4978372;28;19906;-75
2023/11/18 04:51:41;;;;;;;;;;;179.40;2252.80;;;;;;4978346;28;19956;-75
2023/11/18 04:54:07;;;;;;;;;;;179.70;2252.80;;;;;;4978340;28;20359;-75
2023/11/18 04:56:35;;;;;;;;;;;179.40;2252.80;;;;;;4995619;28;20016;-75
2023/11/18 04:59:01;;;;;;;;;;;179.40;2252.80;;;;;;4996013;28;19905;-75
2023/11/18 05:01:26;;;;;;;;;;;179.50;2252.80;;;;;;4995896;28;19906;-75
2023/11/18 05:03:52;;;;;;;;;;;179.50;2252.80;;;;;;4995886;28;19906;-75
2023/11/18 05:06:19;;;;;;;;;;;179.50;2252.80;;;;;;4995499;28;19988;-75
2023/11/18 05:08:45;;;;;;;;;;;179.50;2252.80;;;;;;4978308;28;19964;-75
2023/11/18 05:11:12;;;;;;;;;;;179.50;2252.80;;;;;;4995591;28;19953;-75
2023/11/18 05:13:40;;;;;;;;;;;179.50;2252.80;;;;;;4995473;28;19912;-75
2023/11/18 05:16:05;;;;;;;;;;;179.50;2252.80;;;;;;4977820;28;19914;-75
2023/11/18 05:18:35;;;;;;;;;;;179.60;2252.80;;;;;;4994770;28;20264;-75
2023/11/18 05:21:01;;;;;;;;;;;179.50;2252.80;;;;;;4977717;28;19925;-75
2023/11/18 05:23:29;;;;;;;;;;;179.40;2252.80;;;;;;4977926;28;20279;-75
2023/11/18 05:25:55;;;;;;;;;;;179.50;2252.80;;;;;;4995105;28;20305;-75
2023/11/18 05:28:22;;;;;;;;;;;179.50;2252.80;;;;;;4992347;28;19906;-75
2023/11/18 05:30:47;;;;;;;;;;;179.40;2252.80;;;;;;4968475;28;20431;-75
2023/11/18 05:33:17;;;;;;;;;;;179.40;2252.80;;;;;;4968145;28;20000;-75
2023/11/18 05:35:48;;;;;;;;;;;179.40;2252.80;;;;;;4989677;28;19960;-75
2023/11/18 05:38:16;;;;;;;;;;;179.40;2252.80;;;;;;4964167;28;19941;-75
2023/11/18 05:40:44;;;;;;;;;;;179.50;2252.80;;;;;;4970464;28;19913;-75
2023/11/18 05:43:15;;;;;;;;;;;179.40;2252.80;;;;;;4984781;28;19906;-75
2023/11/18 05:46:12;;;;;;;;;;;179.40;2252.80;;;;;;4987263;28;19905;-75
2023/11/18 05:48:26;;;;;;;;;;;179.30;2252.80;;;;;;4992764;28;20275;-75
2023/11/18 05:50:52;;;;;;;;;;;179.30;2252.80;;;;;;4964458;28;19913;-75
2023/11/18 05:53:18;;;;;;;;;;;179.30;2252.80;;;;;;4962192;28;20378;-75
2023/11/18 05:55:43;;;;;;;;;;;179.30;2252.80;;;;;;4989670;28;19918;-75
2023/11/18 05:58:09;;;;;;;;;;;179.20;2252.80;;;;;;4983581;28;19912;-75
2023/11/18 06:00:35;;;;;;;;;;;179.20;2252.80;;;;;;4961824;28;19910;-75
2023/11/18 06:03:01;;;;;;;;;;;179.20;2252.80;;;;;;4987376;28;19913;-75
2023/11/18 06:05:29;;;;;;;;;;;154.50;2252.80;;;;;;4973017;28;19960;-75
2023/11/18 06:07:54;;;;;;;;;;;179.30;2252.80;;;;;;4988434;28;19969;-74
2023/11/18 06:10:20;;;;;;;;;;;179.20;2252.80;;;;;;4986393;28;19906;-75
2023/11/18 06:12:46;;;;;;;;;;;179.20;2252.80;;;;;;4967715;28;19906;-74
2023/11/18 06:15:14;;;;;;;;;;;154.50;2252.80;;;;;;4966817;28;20380;-74
2023/11/18 06:17:40;;;;;;;;;;;179.20;2252.80;;;;;;4990783;28;19905;-75
2023/11/18 06:20:06;;;;;;;;;;;154.50;2252.80;;;;;;4988006;28;19960;-75
2023/11/18 06:22:32;;;;;;;;;;;179.20;2252.80;;;;;;4988223;28;19920;-75
2023/11/18 06:24:57;;;;;;;;;;;179.20;2252.80;;;;;;4987735;28;20279;-75
2023/11/18 06:27:24;;;;;;;;;;;179.30;2252.80;;;;;;4976042;28;19906;-74
2023/11/18 06:29:50;;;;;;;;;;;154.50;2252.80;;;;;;4966358;28;19906;-74
2023/11/18 06:32:16;;;;;;;;;;;179.20;2252.80;;;;;;4989924;28;19956;-74
2023/11/18 06:34:41;;;;;;;;;;;179.20;2252.80;;;;;;4991920;28;19913;-74
2023/11/18 06:37:07;;;;;;;;;;;179.20;2252.80;;;;;;4989506;28;20394;-74
2023/11/18 06:39:35;;;;;;;;;;;179.30;2252.80;;;;;;4964065;28;19906;-74
2023/11/18 06:42:02;;;;;;;;;;;179.30;2252.80;;;;;;4984916;28;19952;-74
2023/11/18 06:44:28;;;;;;;;;;;179.20;2252.80;;;;;;4970634;28;19924;-76
2023/11/18 06:46:54;;;;;;;;;;;154.50;2252.80;;;;;;4966285;28;20379;-76
2023/11/18 06:49:20;;;;;;;;;;;179.30;2252.80;;;;;;4985430;28;20045;-76
2023/11/18 06:51:45;;;;;;;;;;;179.20;2252.80;;;;;;4990607;28;20367;-75
2023/11/18 06:54:13;;;;;;;;;;;179.20;2252.80;;;;;;4961039;28;19921;-75
2023/11/18 06:56:45;;;;;;;;;;;179.20;2252.80;;;;;;4987584;28;19913;-75
2023/11/18 06:59:12;;;;;;;;;;;179.30;2252.80;;;;;;4973184;28;20377;-75
2023/11/18 07:01:40;;;;;;;;;;;179.20;2252.80;;;;;;4964065;28;20280;-75
2023/11/18 07:04:08;;;;;;;;;;;179.20;2252.80;;;;;;4989357;28;19906;-75
2023/11/18 07:06:37;;;;;;;;;;;179.20;2252.80;;;;;;4984392;28;19910;-75
2023/11/18 07:09:08;;;;;;;;;;;179.20;2252.80;;;;;;4990488;28;20022;-76
2023/11/18 07:11:34;;;;;;;;;;;179.20;2252.80;;;;;;4977488;28;20360;-76
2023/11/18 07:14:00;;;;;;;;;;;179.30;2252.80;;;;;;4987526;28;20026;-76
2023/11/18 07:16:26;;;;;;;;;;;179.40;2252.80;;;;;;4984881;28;19910;-76
2023/11/18 07:18:52;;;;;;;;;;;179.40;2252.80;;;;;;4977714;28;19910;-76
2023/11/18 07:21:18;;;;;;;;;;;179.40;2252.80;;;;;;4987125;28;19957;-75
2023/11/18 07:23:44;;;;;;;;;;;179.30;2252.80;;;;;;4985614;28;19969;-76
2023/11/18 07:26:13;;;;;;;;;;;179.50;2252.80;;;;;;4982804;28;19906;-77
2023/11/18 07:28:39;;;;;;;;;;;179.50;2252.80;;;;;;4963446;28;20360;-75
2023/11/18 07:31:05;;;;;;;;;;;204.80;2252.80;;;;;;4965660;28;20045;-76
2023/11/18 07:33:32;;;;;;;;;;;179.70;2252.80;;;;;;4987483;28;20292;-75
2023/11/18 07:35:57;;;;;;;;;;;179.80;2252.80;;;;;;4985213;28;19914;-73
2023/11/18 07:38:23;;;;;;;;;;;179.70;2252.80;;;;;;4988830;28;19906;-84
2023/11/18 07:40:49;;;;;;;;;;;179.70;2252.80;;;;;;4972096;28;20372;-71
2023/11/18 07:43:15;;;;;;;;;;;179.90;2252.80;;;;;;4989531;28;19906;-74
2023/11/18 07:45:41;;;;;;;;;;;179.90;2252.80;;;;;;4995244;28;20375;-76
2023/11/18 07:48:11;;;;;;;;;;;179.90;2252.80;;;;;;4991222;28;19905;-75
2023/11/18 07:50:38;;;;;;;;;;;180.00;2252.80;;;;;;4990927;28;19909;-75
2023/11/18 07:53:06;;;;;;;;;;;180.00;2252.80;;;;;;4993031;28;20052;-75
2023/11/18 07:55:34;;;;;;;;;;;204.80;2252.80;;;;;;4988858;28;20049;-77
2023/11/18 07:58:03;;;;;;;;;;;204.90;2252.80;;;;;;4995949;28;19906;-78
2023/11/18 08:00:33;;;;;;;;;;;180.10;2252.80;;;;;;4977494;28;19910;-75
2023/11/18 08:03:00;;;;;;;;;;;180.10;2252.80;;;;;;4986951;28;19906;-75
2023/11/18 08:05:26;;;;;;;;;;;204.80;2252.80;;;;;;4990359;28;19909;-75
2023/11/18 08:07:53;;;;;;;;;;;204.90;2252.80;;;;;;4992491;28;19937;-74
2023/11/18 08:10:18;;;;;;;;;;;204.80;2252.80;;;;;;4972818;28;19909;-74
2023/11/18 08:12:45;;;;;;;;;;;204.80;2252.80;;;;;;4986644;28;19914;-75
2023/11/18 08:15:11;;;;;;;;;;;204.80;2252.80;;;;;;4992215;28;20334;-75
2023/11/18 08:17:36;;;;;;;;;;;204.90;2252.80;;;;;;4987287;28;20371;-75
2023/11/18 08:20:13;;;;;;;;;;;204.90;2252.80;;;;;;4990053;28;19917;-74
2023/11/18 08:22:43;;;;;;;;;;;205.00;2252.80;;;;;;4990941;28;19954;-75
2023/11/18 08:25:10;;;;;;;;;;;205.00;2252.80;;;;;;4965129;28;19957;-75
2023/11/18 08:27:35;;;;;;;;;;;205.10;2252.80;;;;;;4978784;28;19909;-77
2023/11/18 08:30:05;;;;;;;;;;;205.00;2252.80;;;;;;4985929;28;20438;-75
2023/11/18 08:32:31;;;;;;;;;;;205.10;2252.80;;;;;;4990083;28;20413;-75
2023/11/18 08:34:57;;;;;;;;;;;205.10;2252.80;;;;;;4994795;28;19913;-78
2023/11/18 08:37:22;;;;;;;;;;;205.10;2252.80;;;;;;4993693;28;19996;-77
2023/11/18 08:39:48;;;;;;;;;;;205.10;2252.80;;;;;;4970255;28;19906;-75
2023/11/18 08:42:14;;;;;;;;;;;205.10;2252.80;;;;;;4979865;28;19906;-77
2023/11/18 08:44:40;;;;;;;;;;;205.10;2252.80;;;;;;4976327;28;19906;-77
2023/11/18 08:47:08;;;;;;;;;;;205.20;2252.80;;;;;;4992425;28;20326;-76
2023/11/18 08:49:34;;;;;;;;;;;205.20;2252.80;;;;;;4961814;28;19956;-74
2023/11/18 08:51:59;;;;;;;;;;;205.40;2252.80;;;;;;4968587;28;20523;-75
2023/11/18 08:54:25;;;;;;;;;;;205.30;2252.80;;;;;;4993209;28;19928;-74
2023/11/18 08:56:51;;;;;;;;;;;205.30;2252.80;;;;;;4969283;28;20363;-75
2023/11/18 08:59:27;;;;;;;;;;;205.70;2252.80;;;;;;4965649;28;19913;-77
2023/11/18 09:01:56;;;;;;;;;;;205.60;2252.80;;;;;;4974039;28;19913;-75
2023/11/18 09:04:23;;;;;;;;;;;205.70;2252.80;;;;;;4988722;28;19925;-75
2023/11/18 09:06:49;;;;;;;;;;;205.70;2252.80;;;;;;4976968;28;20286;-76
2023/11/18 09:09:15;;;;;;;;;;;205.50;2252.80;;;;;;4971850;28;19906;-75
2023/11/18 09:11:42;;;;;;;;;;;230.40;2252.80;;;;;;4971254;28;19906;-77
2023/11/18 09:14:08;;;;;;;;;;;230.60;2252.80;;;;;;4989572;28;20508;-75
2023/11/18 09:16:39;;;;;;;;;;;230.70;2252.80;;;;;;4972850;28;19941;-75
2023/11/18 09:19:05;;;;;;;;;;;230.50;2252.80;;;;;;4987424;28;19906;-74
2023/11/18 09:21:35;;;;;;;;;;;230.70;2252.80;;;;;;4964872;28;19972;-79
2023/11/18 09:24:02;;;;;;;;;;;230.70;2252.80;;;;;;4977019;28;19953;-77
2023/11/18 09:26:30;;;;;;;;;;;231.00;2252.80;;;;;;4968028;28;20368;-75
2023/11/18 09:28:55;;;;;;;;;;;231.10;2252.80;;;;;;4986214;28;19939;-75
2023/11/18 09:31:22;;;;;;;;;;;256.00;2252.80;;;;;;4993188;28;19922;-75
2023/11/18 09:33:52;;;;;;;;;;;256.20;2252.80;;;;;;4975352;28;19913;-74
2023/11/18 09:36:18;;;;;;;;;;;256.00;2252.80;;;;;;4991030;28;19910;-74
2023/11/18 09:38:46;;;;;;;;;;;256.30;2252.80;;;;;;4975851;28;19967;-75
2023/11/18 09:41:12;;;;;;;;;;;256.70;2252.80;;;;;;4961580;28;19906;-77
2023/11/18 09:43:47;;;;;;;;;;;281.80;2278.40;;;;;;4989257;28;19906;-76
2023/11/18 09:46:12;;;;;;;;;;;281.80;2278.40;;;;;;4972405;28;20333;-75
2023/11/18 09:48:46;;;;;;;;;;;282.00;2278.40;;;;;;4986950;28;20402;-77
2023/11/18 09:51:22;;;;;;;;;;;282.10;2278.40;;;;;;4968789;28;19913;-77
2023/11/18 09:53:52;;;;;;;;;;;281.90;2278.40;;;;;;4975628;28;19945;-74
2023/11/18 09:56:38;;;;;;;;;;;282.30;2278.40;;;;;;4975993;28;19909;-78
2023/11/18 09:59:23;;;;;;;;;;;281.80;2278.40;;;;;;4935976;29;19914;-75
2023/11/18 10:01:53;;;;;;;;;;;282.40;2278.40;;;;;;4929954;29;19918;-77
2023/11/18 10:04:27;;;;;;;;;;;307.20;2304.00;;;;;;4932087;28;20443;-75
2023/11/18 10:06:53;;;;;;;;;;;307.30;2304.00;;;;;;4939064;29;20001;-77
2023/11/18 10:09:28;;;;;;;;;;;307.40;2304.00;;;;;;4940784;29;20435;-77
2023/11/18 10:12:00;;;;;;;;;;;282.50;2278.40;;;;;;4930001;29;19910;-77
2023/11/18 10:14:29;;;;;;;;;;;307.60;2304.00;;;;;;4922443;29;19918;-76
2023/11/18 10:16:55;;;;;;;;;;;308.00;2304.00;;;;;;4930609;29;19939;-75
2023/11/18 10:19:21;;;;;;;;;;;307.40;2304.00;;;;;;4944180;28;19914;-75
2023/11/18 10:21:49;;;;;;;;;;;308.10;2304.00;;;;;;4939989;29;20293;-74
2023/11/18 10:24:14;;;;;;;;;;;308.00;2304.00;;;;;;4934449;29;20007;-76
2023/11/18 10:26:41;;;;;;;;;;;307.30;2304.00;;;;;;4945145;28;20275;-75
2023/11/18 10:29:08;;;;;;;;;;;282.20;2278.40;;;;;;4923232;29;20356;-76
2023/11/18 10:31:37;;;;;;;;;;;281.90;2278.40;;;;;;4938739;28;19918;-75
2023/11/18 10:34:03;;;;;;;;;;;281.80;2278.40;;;;;;4929327;29;19915;-75
2023/11/18 10:36:31;;;;;;;;;;;281.80;2278.40;;;;;;4972980;28;20045;-75
2023/11/18 10:38:57;;;;;;;;;;;282.20;2278.40;;;;;;4991435;28;20370;-75
2023/11/18 10:41:22;;;;;;;;;;;282.10;2278.40;;;;;;4986025;28;19929;-75
2023/11/18 10:43:48;;;;;;;;;;;281.90;2278.40;;;;;;4971455;28;19992;-75
2023/11/18 10:46:15;;;;;;;;;;;281.70;2278.40;;;;;;4989172;28;19912;-75
2023/11/18 10:48:49;;;;;;;;;;;256.90;2252.80;;;;;;4985455;28;20397;-76
2023/11/18 10:51:16;;;;;;;;;;;281.60;2278.40;;;;;;4988015;28;19961;-75
2023/11/18 10:56:45;;;;;;;;;;;281.60;2278.40;;;;;;4934812;29;19974;-75
2023/11/18 10:59:16;;;;;;;;;;;256.90;2252.80;;;;;;4934694;29;19907;-75
2023/11/18 11:01:42;;;;;;;;;;;256.60;2252.80;;;;;;4938726;29;20047;-75
2023/11/18 11:04:10;;;;;;;;;;;256.50;2252.80;;;;;;4935112;29;19915;-76
2023/11/18 11:06:41;;;;;;;;;;;256.50;2252.80;;;;;;4935461;29;19914;-75
2023/11/18 11:09:09;;;;;;;;;;;256.40;2252.80;;;;;;4916827;29;20325;-74
2023/11/18 11:11:39;;;;;;;;;;;256.60;2252.80;;;;;;4938033;29;19955;-74
2023/11/18 11:14:06;;;;;;;;;;;256.60;2252.80;;;;;;4935054;29;20507;-73
2023/11/18 11:16:55;;;;;;;;;;;256.50;2252.80;;;;;;4935067;29;20406;-75
2023/11/18 11:19:34;;;;;;;;;;;256.40;2252.80;;;;;;4886808;29;19916;-75
2023/11/18 11:22:10;;;;;;;;;;;256.40;2252.80;;;;;;4883410;29;20320;-74
2023/11/18 11:24:53;;;;;;;;;;;256.30;2252.80;;;;;;4880565;29;19918;-74
2023/11/18 11:27:29;;;;;;;;;;;256.00;2252.80;;;;;;4899315;29;19907;-74
2023/11/18 11:30:10;;;;;;;;;;;256.40;2252.80;;;;;;4883443;29;19938;-75
2023/11/18 11:32:38;;;;;;;;;;;256.50;2252.80;;;;;;4882302;29;19947;-75
2023/11/18 11:35:07;;;;;;;;;;;256.60;2252.80;;;;;;4904543;29;20326;-73
2023/11/18 11:37:36;;;;;;;;;;;256.50;2252.80;;;;;;4936578;29;19906;-75
2023/11/18 11:40:09;;;;;;;;;;;256.60;2252.80;;;;;;4936799;29;20001;-73
2023/11/18 11:42:34;;;;;;;;;;;256.50;2252.80;;;;;;4936444;29;19938;-73
2023/11/18 11:45:01;;;;;;;;;;;256.50;2252.80;;;;;;4936502;29;19964;-73
2023/11/18 11:47:28;;;;;;;;;;;256.40;2252.80;;;;;;4936378;29;19911;-74
2023/11/18 11:50:13;;;;;;;;;;;256.20;2252.80;;;;;;4936226;29;19907;-74
2023/11/18 11:52:43;;;;;;;;;;;256.20;2252.80;;;;;;4933922;29;20332;-72
2023/11/18 11:55:15;;;;;;;;;;;256.30;2252.80;;;;;;4928744;28;19971;-73
2023/11/18 11:57:42;;;;;;;;;;;256.20;2252.80;;;;;;4992875;28;20364;-72
2023/11/18 12:00:17;;;;;;;;;;;256.10;2252.80;;;;;;4990525;28;19910;-73
2023/11/18 12:02:50;;;;;;;;;;;256.10;2252.80;;;;;;4991022;28;20427;-73
2023/11/18 12:05:18;;;;;;;;;;;256.00;2252.80;;;;;;4974129;28;19909;-72
2023/11/18 12:07:46;;;;;;;;;;;231.30;2252.80;;;;;;4985091;28;20364;-74
2023/11/18 12:10:20;;;;;;;;;;;256.00;2252.80;;;;;;4984187;28;19906;-73
2023/11/18 12:12:45;;;;;;;;;;;256.10;2252.80;;;;;;4989393;28;19910;-73
2023/11/18 12:15:20;;;;;;;;;;;256.00;2252.80;;;;;;4987653;28;19914;-72
2023/11/18 12:17:51;;;;;;;;;;;256.10;2252.80;;;;;;4986226;28;19916;-74
2023/11/18 12:20:36;;;;;;;;;;;256.10;2252.80;;;;;;4994247;28;19961;-74
2023/11/18 12:23:14;;;;;;;;;;;256.10;2252.80;;;;;;4972512;28;19910;-74
2023/11/18 12:25:42;;;;;;;;;;;256.20;2252.80;;;;;;4991337;28;19948;-73
2023/11/18 12:28:08;;;;;;;;;;;256.20;2252.80;;;;;;4993467;28;19910;-74
2023/11/18 12:30:36;;;;;;;;;;;256.20;2252.80;;;;;;4992028;28;19906;-74
2023/11/18 12:33:08;;;;;;;;;;;256.20;2252.80;;;;;;4993285;28;19905;-80
2023/11/18 12:35:37;;;;;;;;;;;256.20;2252.80;;;;;;4989111;28;19914;-74
2023/11/18 12:38:10;;;;;;;;;;;256.30;2252.80;;;;;;4992332;28;19913;-73
2023/11/18 12:41:04;;;;;;;;;;;256.30;2252.80;;;;;;4980949;28;20000;-73
2023/11/18 12:43:45;;;;;;;;;;;256.30;2252.80;;;;;;4989911;28;20271;-74
2023/11/18 12:46:30;;;;;;;;;;;256.20;2252.80;;;;;;4985389;28;20414;-73
2023/11/18 12:48:57;;;;;;;;;;;256.20;2252.80;;;;;;4993192;28;19941;-73
2023/11/18 12:51:22;;;;;;;;;;;256.20;2252.80;;;;;;4972028;28;19992;-74
2023/11/18 12:53:53;;;;;;;;;;;256.10;2252.80;;;;;;4967942;28;20394;-73
2023/11/18 12:56:24;;;;;;;;;;;231.30;2252.80;;;;;;4975881;28;19921;-73
2023/11/18 12:58:50;;;;;;;;;;;256.00;2252.80;;;;;;4989748;28;19912;-75
2023/11/18 13:01:16;;;;;;;;;;;231.30;2252.80;;;;;;4984896;28;20831;-74
2023/11/18 13:03:42;;;;;;;;;;;231.30;2252.80;;;;;;4993737;28;19993;-74
2023/11/18 13:06:08;;;;;;;;;;;231.20;2252.80;;;;;;4992301;28;20275;-76
2023/11/18 13:08:34;;;;;;;;;;;231.20;2252.80;;;;;;4994433;28;19913;-75
2023/11/18 13:11:04;;;;;;;;;;;231.20;2252.80;;;;;;4993319;28;19905;-73
2023/11/18 13:13:33;;;;;;;;;;;231.20;2252.80;;;;;;4991598;28;19912;-74
2023/11/18 13:15:58;;;;;;;;;;;231.20;2252.80;;;;;;4989860;28;20059;-74
2023/11/18 13:18:26;;;;;;;;;;;231.10;2252.80;;;;;;4991959;28;19976;-74
2023/11/18 13:20:58;;;;;;;;;;;231.20;2252.80;;;;;;4989017;28;19957;-75
2023/11/18 13:23:27;;;;;;;;;;;231.10;2252.80;;;;;;4975821;28;19920;-74
2023/11/18 13:26:04;;;;;;;;;;;231.10;2252.80;;;;;;4986745;28;20364;-73
2023/11/18 13:28:29;;;;;;;;;;;231.10;2252.80;;;;;;4993360;28;19913;-75
2023/11/18 13:30:55;;;;;;;;;;;231.10;2252.80;;;;;;4983658;28;19910;-74
2023/11/18 13:33:21;;;;;;;;;;;231.10;2252.80;;;;;;4988636;28;20375;-74
2023/11/18 13:35:47;;;;;;;;;;;231.20;2252.80;;;;;;4987037;28;20004;-74
2023/11/18 13:38:13;;;;;;;;;;;231.20;2252.80;;;;;;4994771;28;20415;-73
2023/11/18 13:40:46;;;;;;;;;;;231.10;2252.80;;;;;;4987577;28;19948;-74
2023/11/18 13:43:12;;;;;;;;;;;231.10;2252.80;;;;;;4987197;28;19912;-74
2023/11/18 13:45:39;;;;;;;;;;;231.10;2252.80;;;;;;4967328;28;20004;-74
2023/11/18 13:48:05;;;;;;;;;;;231.10;2252.80;;;;;;4988858;28;19906;-74